Time;durP1;ratioP1;P1;durP2;ratioP2;P2;SDS_P1;SDS_P2;PMS_P1;PMS_P2;Temp;Humidity;BMP_temperature;BMP_pressure;BME280_temperature;BME280_humidity;BME280_pressure;Samples;Min_cycle;Max_cycle;Signal;HPM_P1;HPM_P2
2020/12/06 00:00:15;;;;;;;54.53;32.15;;;;;;;2.76;100.00;98435.50;2080363;28;20227;-85
2020/12/06 00:01:17;;;;;;;60.17;34.17;;;;;;;2.81;100.00;98440.00;2080285;28;20690;-85
2020/12/06 00:02:17;;;;;;;53.75;31.38;;;;;;;2.71;100.00;98424.19;2080116;28;20306;-85
2020/12/06 00:03:19;;;;;;;52.50;32.67;;;;;;;2.78;100.00;98440.50;2079540;28;20223;-85
2020/12/06 00:04:20;;;;;;;56.58;32.75;;;;;;;2.77;100.00;98437.09;2079325;28;20328;-85
2020/12/06 00:05:21;;;;;;;58.13;33.73;;;;;;;2.79;100.00;98427.09;2079545;28;20235;-85
2020/12/06 00:06:22;;;;;;;56.47;33.33;;;;;;;2.74;100.00;98434.97;2079364;28;20306;-84
2020/12/06 00:07:24;;;;;;;54.50;34.08;;;;;;;2.76;100.00;98434.72;2079591;28;20227;-84
2020/12/06 00:08:24;;;;;;;55.05;32.83;;;;;;;2.76;100.00;98435.50;2079511;28;20235;-85
2020/12/06 00:09:26;;;;;;;51.20;31.37;;;;;;;2.71;100.00;98422.34;2079710;28;20289;-85
2020/12/06 00:10:26;;;;;;;55.22;32.75;;;;;;;2.72;100.00;98431.81;2079694;28;20223;-85
2020/12/06 00:11:28;;;;;;;69.90;39.87;;;;;;;2.85;100.00;98425.25;2071401;28;20678;-85
2020/12/06 00:12:33;;;;;;;97.50;53.03;;;;;;;3.19;100.00;98433.47;2079692;28;20223;-84
2020/12/06 00:13:34;;;;;;;155.07;81.47;;;;;;;3.34;100.00;98422.94;2079827;28;20215;-85
2020/12/06 00:14:35;;;;;;;125.15;64.45;;;;;;;3.61;100.00;98442.94;2072240;28;20236;-85
2020/12/06 00:15:38;;;;;;;93.87;47.97;;;;;;;3.52;100.00;98434.78;2079601;28;20215;-85
2020/12/06 00:16:39;;;;;;;77.85;40.92;;;;;;;3.47;100.00;98434.78;2080173;28;20223;-85
2020/12/06 00:17:40;;;;;;;60.73;35.00;;;;;;;3.42;100.00;98440.06;2080540;28;20234;-86
2020/12/06 00:18:43;;;;;;;55.00;32.20;;;;;;;3.39;100.00;98449.31;2079573;28;20239;-86
2020/12/06 00:19:47;;;;;;;56.35;32.63;;;;;;;3.37;100.00;98453.25;2080325;28;20230;-86
2020/12/06 00:20:47;;;;;;;57.78;33.22;;;;;;;3.32;100.00;98447.97;2079377;28;20232;-85
2020/12/06 00:21:49;;;;;;;52.83;32.23;;;;;;;3.33;100.00;98449.56;2079864;28;20219;-86
2020/12/06 00:22:50;;;;;;;51.95;32.53;;;;;;;3.29;100.00;98449.28;2079620;28;20284;-86
2020/12/06 00:23:52;;;;;;;57.15;33.53;;;;;;;3.30;100.00;98450.06;2079631;28;20246;-85
2020/12/06 00:24:52;;;;;;;50.20;32.35;;;;;;;3.33;100.00;98450.34;2079626;28;20245;-85
2020/12/06 00:25:54;;;;;;;64.00;32.00;;;;;;;3.32;100.00;98454.03;2071223;28;20694;-85
2020/12/06 00:26:56;;;;;;;51.63;31.23;;;;;;;3.36;100.00;98455.09;2079549;28;20250;-85
2020/12/06 00:27:59;;;;;;;58.03;32.47;;;;;;;3.33;100.00;98450.34;2070217;28;20729;-85
2020/12/06 00:28:59;;;;;;;47.55;31.27;;;;;;;3.33;100.00;98450.34;2079723;28;20302;-85
2020/12/06 00:30:01;;;;;;;59.17;32.03;;;;;;;3.27;100.00;98448.75;2086817;28;20219;-85
2020/12/06 00:31:02;;;;;;;56.15;34.03;;;;;;;3.28;100.00;98449.53;2080327;28;20258;-85
2020/12/06 00:32:03;;;;;;;53.97;32.85;;;;;;;3.23;100.00;98450.34;2080157;28;20319;-85
2020/12/06 00:33:05;;;;;;;59.50;35.63;;;;;;;3.20;100.00;98445.59;2079627;28;20227;-85
2020/12/06 00:34:05;;;;;;;57.28;31.48;;;;;;;3.27;100.00;98446.13;2070916;28;20321;-85
2020/12/06 00:35:08;;;;;;;50.73;32.20;;;;;;;3.30;100.00;98445.63;2071571;28;20228;-85
2020/12/06 00:36:09;;;;;;;55.40;32.35;;;;;;;3.24;100.00;98433.47;2071679;28;21040;-84
2020/12/06 00:37:10;;;;;;;51.53;32.25;;;;;;;3.35;100.00;98453.50;2071409;28;20768;-84
2020/12/06 00:38:11;;;;;;;50.17;31.52;;;;;;;3.17;100.00;98417.13;2079579;28;26852;-85
2020/12/06 00:39:13;;;;;;;53.20;32.20;;;;;;;3.31;100.00;98441.13;2079644;28;20220;-85
2020/12/06 00:40:13;;;;;;;46.58;30.38;;;;;;;3.32;100.00;98448.78;2071219;28;20278;-85
2020/12/06 00:41:17;;;;;;;53.67;31.83;;;;;;;3.22;100.00;98434.81;2071115;28;20232;-85
2020/12/06 00:42:18;;;;;;;53.80;31.77;;;;;;;3.28;100.00;98450.34;2079567;28;20446;-85
2020/12/06 00:43:20;;;;;;;51.27;31.20;;;;;;;3.15;100.00;98426.34;2079707;28;20227;-85
2020/12/06 00:44:21;;;;;;;48.88;31.02;;;;;;;3.23;100.00;98439.81;2071223;28;20232;-84
2020/12/06 00:45:23;;;;;;;52.67;32.97;;;;;;;3.04;100.00;98415.81;2071202;28;20224;-84
2020/12/06 00:46:23;;;;;;;48.95;31.67;;;;;;;3.18;100.00;98446.91;2073165;28;20228;-84
2020/12/06 00:47:26;;;;;;;49.85;30.77;;;;;;;3.06;100.00;98429.50;2072733;28;20270;-85
2020/12/06 00:48:27;;;;;;;51.63;32.00;;;;;;;3.15;100.00;98448.22;2081450;28;20231;-84
2020/12/06 00:49:29;;;;;;;48.73;32.10;;;;;;;3.13;100.00;98445.06;2081792;28;20219;-84
2020/12/06 00:50:30;;;;;;;54.38;33.13;;;;;;;3.09;100.00;98450.06;2081612;28;20558;-85
2020/12/06 00:51:31;;;;;;;51.58;31.60;;;;;;;3.10;100.00;98449.00;2081261;28;20220;-85
2020/12/06 00:52:33;;;;;;;54.60;33.97;;;;;;;2.94;100.00;98428.94;2080491;28;20323;-84
2020/12/06 00:53:34;;;;;;;49.25;32.55;;;;;;;2.97;100.00;98438.19;2081239;28;20446;-85
2020/12/06 00:54:35;;;;;;;52.53;33.20;;;;;;;2.99;100.00;98452.69;2080978;28;20218;-85
2020/12/06 00:55:36;;;;;;;55.15;32.85;;;;;;;3.01;100.00;98453.22;2072838;28;20314;-85
2020/12/06 00:56:38;;;;;;;55.33;31.87;;;;;;;3.10;100.00;98456.13;2072929;28;20228;-85
2020/12/06 00:57:38;;;;;;;56.35;34.67;;;;;;;3.14;100.00;98459.84;2081004;28;20438;-84
2020/12/06 00:58:41;;;;;;;56.80;34.33;;;;;;;3.18;100.00;98460.88;2081064;28;20235;-84
2020/12/06 00:59:42;;;;;;;56.85;34.90;;;;;;;3.29;100.00;98465.09;2081243;28;21461;-85
2020/12/06 01:00:43;;;;;;;56.72;33.92;;;;;;;3.32;100.00;98464.59;2081773;28;20223;-85
2020/12/06 01:01:44;;;;;;;50.72;34.33;;;;;;;3.35;100.00;98464.06;2081258;28;20231;-85
2020/12/06 01:02:45;;;;;;;49.43;31.50;;;;;;;3.22;100.00;98458.53;2080525;28;20256;-85
2020/12/06 01:03:46;;;;;;;48.95;30.98;;;;;;;3.19;100.00;98454.53;2080933;28;20216;-85
2020/12/06 01:04:47;;;;;;;55.60;32.70;;;;;;;3.15;100.00;98453.50;2081349;28;20262;-84
2020/12/06 01:05:49;;;;;;;50.67;33.47;;;;;;;3.12;100.00;98456.66;2072566;28;20362;-84
2020/12/06 01:06:50;;;;;;;50.00;32.75;;;;;;;3.08;100.00;98455.59;2080793;28;20243;-84
2020/12/06 01:07:51;;;;;;;50.65;32.33;;;;;;;3.06;100.00;98455.06;2072874;28;20224;-84
2020/12/06 01:08:52;;;;;;;55.53;31.57;;;;;;;2.89;100.00;98441.34;2080569;28;20228;-78
2020/12/06 01:09:53;;;;;;;50.95;33.30;;;;;;;2.94;100.00;98465.06;2082230;28;20231;-84
2020/12/06 01:10:54;;;;;;;51.37;31.60;;;;;;;2.82;100.00;98462.66;2080885;28;20227;-84
2020/12/06 01:11:55;;;;;;;53.90;31.50;;;;;;;2.79;100.00;98450.81;2073495;28;20227;-84
2020/12/06 01:12:58;;;;;;;47.60;31.17;;;;;;;2.76;100.00;98456.56;2072854;28;20227;-84
2020/12/06 01:14:00;;;;;;;54.33;33.88;;;;;;;2.66;100.00;98453.91;2080928;28;20301;-84
2020/12/06 01:15:01;;;;;;;50.80;30.67;;;;;;;2.59;100.00;98452.56;2082464;28;20306;-85
2020/12/06 01:16:02;;;;;;;51.30;31.50;;;;;;;2.50;100.00;98455.72;2080905;28;20303;-85
2020/12/06 01:17:03;;;;;;;52.27;30.97;;;;;;;2.36;100.00;98452.00;2081153;28;20226;-85
2020/12/06 01:18:04;;;;;;;45.72;30.92;;;;;;;2.36;100.00;98461.72;2071967;28;20755;-85
2020/12/06 01:19:05;;;;;;;51.43;32.40;;;;;;;2.24;100.00;98464.56;2071825;28;20626;-86
2020/12/06 01:20:07;;;;;;;53.70;33.28;;;;;;;2.22;100.00;98470.06;2081329;28;20222;-85
2020/12/06 01:21:09;;;;;;;54.80;31.77;;;;;;;2.19;100.00;98465.34;2072227;28;20223;-85
2020/12/06 01:22:10;;;;;;;55.10;33.47;;;;;;;2.16;100.00;98462.41;2080809;28;20257;-85
2020/12/06 01:23:12;;;;;;;55.17;33.20;;;;;;;2.08;100.00;98461.03;2080857;28;20265;-86
2020/12/06 01:24:12;;;;;;;53.97;32.58;;;;;;;2.03;100.00;98466.28;2080705;28;20310;-85
2020/12/06 01:25:14;;;;;;;55.97;32.27;;;;;;;1.92;100.00;98456.78;2072817;28;20228;-85
2020/12/06 01:26:15;;;;;;;56.42;33.28;;;;;;;1.95;100.00;98456.25;2080644;28;20286;-86
2020/12/06 01:27:16;;;;;;;60.37;34.37;;;;;;;1.88;100.00;98451.22;2081294;28;20265;-85
2020/12/06 01:28:17;;;;;;;57.63;34.22;;;;;;;1.91;100.00;98460.41;2081067;28;20216;-85
2020/12/06 01:29:19;;;;;;;64.90;35.47;;;;;;;1.83;100.00;98455.66;2080773;28;20250;-85
2020/12/06 01:30:20;;;;;;;69.05;37.78;;;;;;;1.87;100.00;98462.78;2080738;28;20569;-85
2020/12/06 01:31:21;;;;;;;58.57;35.40;;;;;;;1.87;100.00;98460.16;2080714;28;20219;-86
2020/12/06 01:32:22;;;;;;;54.75;34.00;;;;;;;1.77;100.00;98448.78;2081193;28;20242;-84
2020/12/06 01:33:24;;;;;;;62.93;34.73;;;;;;;1.81;100.00;98455.09;2080229;28;20306;-85
2020/12/06 01:34:24;;;;;;;56.35;35.25;;;;;;;1.81;100.00;98450.63;2080538;28;20466;-85
2020/12/06 01:35:26;;;;;;;59.30;35.60;;;;;;;1.74;100.00;98444.00;2080783;28;20231;-85
2020/12/06 01:36:26;;;;;;;59.80;34.33;;;;;;;1.78;100.00;98458.25;2080907;28;20399;-84
2020/12/06 01:37:28;;;;;;;61.17;34.90;;;;;;;1.75;100.00;98461.41;2081314;28;20219;-85
2020/12/06 01:38:29;;;;;;;55.85;35.50;;;;;;;1.63;100.00;98449.19;2081548;28;20231;-85
2020/12/06 01:39:30;;;;;;;55.63;34.20;;;;;;;1.69;100.00;98457.94;2080789;28;20231;-85
2020/12/06 01:40:31;;;;;;;62.53;36.85;;;;;;;1.63;100.00;98454.47;2080688;28;20314;-84
2020/12/06 01:41:32;;;;;;;60.90;36.10;;;;;;;1.63;100.00;98457.09;2072292;28;20224;-85
2020/12/06 01:42:33;;;;;;;56.75;36.58;;;;;;;1.64;100.00;98461.31;2072496;28;20311;-86
2020/12/06 01:43:35;;;;;;;58.23;35.47;;;;;;;1.53;100.00;98440.47;2080486;28;20219;-85
2020/12/06 01:44:36;;;;;;;63.58;36.15;;;;;;;1.53;100.00;98453.59;2080362;28;20246;-85
2020/12/06 01:45:38;;;;;;;64.13;36.28;;;;;;;1.50;100.00;98448.84;2080126;28;20250;-84
2020/12/06 01:46:39;;;;;;;66.80;37.28;;;;;;;1.56;100.00;98472.28;2080432;28;20282;-85
2020/12/06 01:47:40;;;;;;;67.22;38.47;;;;;;;1.55;100.00;98469.91;2080444;28;20310;-85
2020/12/06 01:48:41;;;;;;;63.10;37.03;;;;;;;1.53;100.00;98472.78;2080357;28;20251;-85
2020/12/06 01:49:43;;;;;;;66.37;37.47;;;;;;;1.53;100.00;98472.00;2079730;28;20234;-85
2020/12/06 01:50:43;;;;;;;64.57;37.92;;;;;;;1.53;100.00;98480.69;2080147;28;20324;-86
2020/12/06 01:51:45;;;;;;;71.67;40.90;;;;;;;1.52;100.00;98468.59;2080591;28;20224;-85
2020/12/06 01:52:47;;;;;;;61.55;35.20;;;;;;;1.56;100.00;98469.66;2080560;28;20302;-85
2020/12/06 01:53:49;;;;;;;70.95;35.72;;;;;;;1.65;100.00;98464.72;2080558;28;20310;-85
2020/12/06 01:54:50;;;;;;;72.68;37.85;;;;;;;1.84;100.00;98465.13;2081281;28;20226;-85
2020/12/06 01:55:53;;;;;;;66.77;38.33;;;;;;;1.77;100.00;98440.88;2080566;28;20350;-85
2020/12/06 01:56:53;;;;;;;74.70;40.20;;;;;;;1.93;100.00;98467.03;2071707;28;20231;-84
2020/12/06 01:58:01;;;;;;;74.40;40.97;;;;;;;1.90;100.00;98458.84;2080238;28;20703;-85
2020/12/06 01:59:02;;;;;;;68.28;38.72;;;;;;;1.82;100.00;98454.06;2080422;28;20230;-85
2020/12/06 02:00:05;;;;;;;68.67;39.13;;;;;;;1.75;100.00;98453.50;2071895;28;20228;-85
2020/12/06 02:01:07;;;;;;;67.68;37.55;;;;;;;1.63;100.00;98449.19;2080365;28;20222;-86
2020/12/06 02:02:09;;;;;;;63.20;35.97;;;;;;;1.76;100.00;98462.97;2079701;28;20333;-85
2020/12/06 02:03:10;;;;;;;66.95;37.35;;;;;;;1.73;100.00;98463.47;2071987;28;20246;-86
2020/12/06 02:04:11;;;;;;;63.03;35.23;;;;;;;1.67;100.00;98460.03;2070395;28;20228;-86
2020/12/06 02:05:12;;;;;;;63.10;34.08;;;;;;;1.65;100.00;98468.16;2071943;28;20266;-86
2020/12/06 02:06:13;;;;;;;64.57;36.23;;;;;;;1.61;100.00;98469.69;2080356;28;20219;-85
2020/12/06 02:07:14;;;;;;;60.97;35.17;;;;;;;1.60;100.00;98470.75;2081350;28;20223;-86
2020/12/06 02:08:15;;;;;;;55.97;33.27;;;;;;;1.47;100.00;98454.59;2080664;28;20226;-86
2020/12/06 02:09:16;;;;;;;58.97;35.25;;;;;;;1.41;100.00;98456.41;2080207;28;20216;-86
2020/12/06 02:10:17;;;;;;;57.43;34.60;;;;;;;1.42;100.00;98461.41;2080251;28;20239;-85
2020/12/06 02:11:29;;;;;;;61.60;36.20;;;;;;;1.38;100.00;98462.16;2080126;28;20476;-86
2020/12/06 02:12:30;;;;;;;63.05;35.83;;;;;;;1.42;100.00;98468.50;2080696;28;20226;-86
2020/12/06 02:13:31;;;;;;;62.97;37.35;;;;;;;1.38;100.00;98467.41;2079992;28;20313;-86
2020/12/06 02:14:32;;;;;;;62.27;36.43;;;;;;;1.36;100.00;98474.75;2080356;28;20219;-86
2020/12/06 02:15:36;;;;;;;61.90;35.42;;;;;;;1.24;100.00;98458.38;2080133;28;20646;-86
2020/12/06 02:16:38;;;;;;;64.18;37.53;;;;;;;1.28;100.00;98462.88;2071958;28;20248;-85
2020/12/06 02:17:38;;;;;;;62.30;36.00;;;;;;;1.29;100.00;98458.41;2080370;28;20223;-86
2020/12/06 02:18:40;;;;;;;59.47;35.93;;;;;;;1.27;100.00;98465.75;2081186;28;20273;-85
2020/12/06 02:19:41;;;;;;;63.75;36.58;;;;;;;1.17;100.00;98455.16;2080208;28;20239;-85
2020/12/06 02:20:44;;;;;;;62.25;34.72;;;;;;;1.16;100.00;98449.09;2079485;28;20231;-85
2020/12/06 02:21:45;;;;;;;59.60;34.35;;;;;;;1.20;100.00;98452.81;2071919;28;20757;-86
2020/12/06 02:22:46;;;;;;;59.07;34.97;;;;;;;1.15;100.00;98458.03;2080431;28;20669;-85
2020/12/06 02:23:47;;;;;;;60.92;35.80;;;;;;;1.15;100.00;98468.53;2080080;28;20229;-86
2020/12/06 02:24:48;;;;;;;62.47;34.80;;;;;;;1.11;100.00;98464.81;2080288;28;20317;-85
2020/12/06 02:25:49;;;;;;;61.22;36.00;;;;;;;1.10;100.00;98466.66;2080676;28;20306;-85
2020/12/06 02:26:51;;;;;;;59.60;34.30;;;;;;;1.08;100.00;98457.44;2080131;28;20286;-85
2020/12/06 02:27:52;;;;;;;65.57;36.35;;;;;;;1.09;100.00;98461.66;2079748;28;20227;-84
2020/12/06 02:28:53;;;;;;;60.57;34.53;;;;;;;1.08;100.00;98463.47;2080314;28;20258;-84
2020/12/06 02:29:54;;;;;;;65.22;36.30;;;;;;;1.06;100.00;98462.94;2071849;28;20259;-84
2020/12/06 02:30:55;;;;;;;63.97;36.93;;;;;;;1.02;100.00;98453.97;2080170;28;20227;-85
2020/12/06 02:31:56;;;;;;;66.40;38.17;;;;;;;1.04;100.00;98462.41;2080075;28;20247;-85
2020/12/06 02:32:58;;;;;;;61.97;36.13;;;;;;;0.94;100.00;98451.78;2080023;28;20282;-85
2020/12/06 02:33:59;;;;;;;64.20;36.38;;;;;;;1.02;100.00;98461.84;2079775;28;20223;-85
2020/12/06 02:35:00;;;;;;;63.07;36.63;;;;;;;1.03;100.00;98466.06;2079442;28;20314;-84
2020/12/06 02:36:02;;;;;;;62.05;36.38;;;;;;;1.02;100.00;98469.72;2077545;28;20223;-85
2020/12/06 02:37:03;;;;;;;62.28;36.42;;;;;;;1.00;100.00;98468.38;2080227;28;20230;-85
2020/12/06 02:38:04;;;;;;;63.20;35.60;;;;;;;1.00;100.00;98465.75;2080229;28;20701;-86
2020/12/06 02:39:08;;;;;;;59.03;35.80;;;;;;;0.97;100.00;98466.28;2079908;28;20627;-86
2020/12/06 02:40:09;;;;;;;59.85;35.45;;;;;;;0.94;100.00;98462.28;2079748;28;20234;-85
2020/12/06 02:41:10;;;;;;;64.07;38.13;;;;;;;0.94;100.00;98470.16;2080027;28;20238;-85
2020/12/06 02:42:11;;;;;;;61.08;37.58;;;;;;;0.93;100.00;98465.16;2079973;28;20227;-86
2020/12/06 02:43:13;;;;;;;65.27;38.67;;;;;;;0.91;100.00;98473.28;2080769;28;20227;-86
2020/12/06 02:44:14;;;;;;;67.50;38.10;;;;;;;0.90;100.00;98465.66;2081292;28;20224;-86
2020/12/06 02:45:15;;;;;;;68.10;38.38;;;;;;;0.89;100.00;98470.13;2080605;28;20219;-85
2020/12/06 02:46:16;;;;;;;64.00;36.80;;;;;;;0.89;100.00;98470.13;2080645;28;20306;-85
2020/12/06 02:47:17;;;;;;;62.70;37.13;;;;;;;0.81;100.00;98471.38;2079950;28;20227;-86
2020/12/06 02:48:18;;;;;;;65.35;35.95;;;;;;;0.83;100.00;98474.53;2080949;28;20258;-85
2020/12/06 02:49:19;;;;;;;63.53;37.27;;;;;;;0.80;100.00;98467.16;2081119;28;20227;-86
2020/12/06 02:50:35;;;;;;;63.10;36.03;;;;;;;0.79;100.00;98475.28;2096649;27;20526;-86
2020/12/06 02:51:36;;;;;;;63.53;36.65;;;;;;;0.75;100.00;98471.53;2102517;28;20303;-86
2020/12/06 02:52:38;;;;;;;58.17;35.53;;;;;;;0.71;100.00;98462.59;2102730;28;20309;-85
2020/12/06 02:53:39;;;;;;;64.90;37.15;;;;;;;0.69;100.00;98467.28;2086394;28;20295;-85
2020/12/06 02:54:40;;;;;;;65.47;36.73;;;;;;;0.67;100.00;98471.97;2095364;28;20221;-85
2020/12/06 02:55:41;;;;;;;69.03;37.83;;;;;;;0.60;100.00;98461.66;2095132;28;20715;-85
2020/12/06 02:56:42;;;;;;;65.93;38.77;;;;;;;0.65;100.00;98476.69;2096075;28;20656;-85
2020/12/06 02:57:43;;;;;;;70.85;39.63;;;;;;;0.60;100.00;98466.91;2096020;28;20301;-85
2020/12/06 02:58:44;;;;;;;69.93;40.53;;;;;;;0.61;100.00;98479.03;2103377;28;20721;-85
2020/12/06 02:59:45;;;;;;;67.93;37.08;;;;;;;0.60;100.00;98472.16;2094721;28;20226;-85
2020/12/06 03:00:46;;;;;;;76.07;39.63;;;;;;;0.57;100.00;98475.28;2086565;28;20294;-85
2020/12/06 03:01:47;;;;;;;67.00;37.67;;;;;;;0.54;100.00;98470.53;2094953;28;20305;-85
2020/12/06 03:02:48;;;;;;;68.80;37.73;;;;;;;0.53;100.00;98472.38;2095641;28;20229;-85
2020/12/06 03:03:49;;;;;;;70.95;40.13;;;;;;;0.47;100.00;98462.84;2094887;28;20233;-85
2020/12/06 03:04:50;;;;;;;75.33;41.23;;;;;;;0.51;100.00;98473.63;2094851;28;20217;-85
2020/12/06 03:05:52;;;;;;;67.25;39.45;;;;;;;0.50;100.00;98466.81;2094879;28;20241;-85
2020/12/06 03:06:53;;;;;;;68.50;40.45;;;;;;;0.50;100.00;98464.97;2076614;28;20238;-85
2020/12/06 03:07:54;;;;;;;76.85;41.70;;;;;;;0.45;100.00;98462.31;2086584;28;20230;-84
2020/12/06 03:08:55;;;;;;;70.67;39.90;;;;;;;0.43;100.00;98461.72;2094897;28;20246;-85
2020/12/06 03:09:56;;;;;;;73.63;39.70;;;;;;;0.40;100.00;98454.34;2095493;28;20708;-85
2020/12/06 03:10:58;;;;;;;70.97;38.77;;;;;;;0.47;100.00;98472.56;2095442;28;20234;-85
2020/12/06 03:11:58;;;;;;;67.97;40.15;;;;;;;0.39;100.00;98465.91;2094621;28;20301;-86
2020/12/06 03:13:00;;;;;;;70.97;39.37;;;;;;;0.41;100.00;98455.16;2094395;28;20221;-85
2020/12/06 03:14:01;;;;;;;69.72;38.50;;;;;;;0.31;100.00;98458.44;2094732;28;20225;-85
2020/12/06 03:15:02;;;;;;;71.13;38.10;;;;;;;0.35;100.00;98462.19;2094731;28;20694;-85
2020/12/06 03:16:03;;;;;;;68.15;39.72;;;;;;;0.42;100.00;98480.34;2094664;28;20330;-85
2020/12/06 03:17:04;;;;;;;69.70;39.17;;;;;;;0.37;100.00;98467.19;2086452;28;20223;-85
2020/12/06 03:18:05;;;;;;;60.92;36.75;;;;;;;0.37;100.00;98477.69;2086490;28;20446;-85
2020/12/06 03:19:07;;;;;;;63.50;35.73;;;;;;;0.53;100.00;98477.63;2086447;28;20282;-85
2020/12/06 03:20:07;;;;;;;72.53;36.88;;;;;;;0.77;100.00;98478.13;2086516;28;20222;-85
2020/12/06 03:21:10;;;;;;;74.73;39.33;;;;;;;0.95;100.00;98484.09;2094457;28;20218;-85
2020/12/06 03:22:10;;;;;;;78.20;38.58;;;;;;;1.10;100.00;98477.16;2094416;28;20314;-86
2020/12/06 03:23:12;;;;;;;75.00;38.27;;;;;;;1.23;100.00;98475.97;2094224;28;20229;-85
2020/12/06 03:24:13;;;;;;;77.80;39.40;;;;;;;1.38;100.00;98472.66;2095493;28;20691;-86
2020/12/06 03:25:14;;;;;;;84.47;40.57;;;;;;;1.57;100.00;98478.34;2103127;28;20587;-86
2020/12/06 03:26:15;;;;;;;84.10;40.78;;;;;;;1.63;100.00;98490.47;2094666;28;20276;-85
2020/12/06 03:27:16;;;;;;;83.13;40.90;;;;;;;1.59;100.00;98484.94;2094562;28;20221;-85
2020/12/06 03:28:17;;;;;;;77.50;42.17;;;;;;;1.53;100.00;98485.94;2086475;28;20230;-85
2020/12/06 03:29:19;;;;;;;76.27;42.10;;;;;;;1.52;100.00;98480.94;2094690;28;20344;-85
2020/12/06 03:30:19;;;;;;;69.97;38.92;;;;;;;1.42;100.00;98485.06;2095318;28;20250;-85
2020/12/06 03:31:21;;;;;;;71.03;39.97;;;;;;;1.36;100.00;98480.81;2095932;28;20218;-86
2020/12/06 03:32:22;;;;;;;69.18;39.15;;;;;;;1.32;100.00;98482.34;2094218;28;20237;-79
2020/12/06 03:33:23;;;;;;;60.67;38.60;;;;;;;1.26;100.00;98479.94;2094613;28;20232;-84
2020/12/06 03:34:24;;;;;;;69.88;39.00;;;;;;;1.20;100.00;98475.66;2095279;28;20255;-84
2020/12/06 03:35:25;;;;;;;69.13;38.77;;;;;;;1.16;100.00;98474.59;2094436;28;20687;-85
2020/12/06 03:36:28;;;;;;;63.33;38.72;;;;;;;1.11;100.00;98473.47;2094537;28;20254;-85
2020/12/06 03:37:28;;;;;;;60.15;36.53;;;;;;;1.07;100.00;98471.63;2094487;28;20757;-84
2020/12/06 03:38:30;;;;;;;55.40;34.17;;;;;;;0.97;100.00;98467.06;2084911;28;20623;-85
2020/12/06 03:39:31;;;;;;;59.30;36.22;;;;;;;0.96;100.00;98468.09;2103912;28;20228;-85
2020/12/06 03:40:32;;;;;;;58.63;33.93;;;;;;;0.87;100.00;98464.34;2096163;28;20218;-85
2020/12/06 03:41:33;;;;;;;59.70;35.22;;;;;;;0.84;100.00;98467.44;2094912;28;20226;-85
2020/12/06 03:42:34;;;;;;;59.40;35.10;;;;;;;0.78;100.00;98473.66;2086520;28;20314;-85
2020/12/06 03:43:35;;;;;;;57.17;34.17;;;;;;;0.71;100.00;98478.34;2086332;28;20242;-85
2020/12/06 03:44:39;;;;;;;55.00;34.10;;;;;;;0.67;100.00;98482.47;2086835;28;20219;-85
2020/12/06 03:45:39;;;;;;;60.10;36.45;;;;;;;0.64;100.00;98475.09;2093894;28;20222;-84
2020/12/06 03:46:41;;;;;;;61.83;36.27;;;;;;;0.60;100.00;98471.38;2094800;28;20282;-84
2020/12/06 03:47:41;;;;;;;62.28;36.85;;;;;;;0.53;100.00;98463.72;2094630;28;20416;-84
2020/12/06 03:48:43;;;;;;;55.37;35.10;;;;;;;0.50;100.00;98464.97;2094172;28;20268;-84
2020/12/06 03:49:44;;;;;;;61.22;35.83;;;;;;;0.45;100.00;98467.56;2094648;28;20226;-85
2020/12/06 03:50:45;;;;;;;55.92;35.22;;;;;;;0.44;100.00;98467.81;2095190;28;20222;-84
2020/12/06 03:51:47;;;;;;;69.30;36.72;;;;;;;0.44;100.00;98470.44;2094360;28;20718;-85
2020/12/06 03:52:48;;;;;;;69.07;38.22;;;;;;;0.41;100.00;98463.03;2094141;28;20226;-86
2020/12/06 03:53:49;;;;;;;66.57;37.80;;;;;;;0.40;100.00;98472.72;2087105;28;20732;-85
2020/12/06 03:54:50;;;;;;;68.37;38.57;;;;;;;0.36;100.00;98466.41;2103609;28;20723;-85
2020/12/06 03:55:51;;;;;;;70.50;38.42;;;;;;;0.32;100.00;98470.53;2094264;28;20222;-85
2020/12/06 03:56:52;;;;;;;70.33;39.17;;;;;;;0.32;100.00;98467.91;2094097;28;20280;-81
2020/12/06 03:57:53;;;;;;;67.90;39.28;;;;;;;0.28;100.00;98474.69;2095696;28;20650;-84
2020/12/06 03:58:54;;;;;;;66.20;39.00;;;;;;;0.25;100.00;98470.69;2093468;28;20230;-84
2020/12/06 03:59:55;;;;;;;74.05;39.55;;;;;;;0.22;100.00;98467.78;2085731;28;20258;-85
2020/12/06 04:00:57;;;;;;;71.37;39.57;;;;;;;0.20;100.00;98475.91;2094304;28;20234;-84
2020/12/06 04:01:57;;;;;;;70.50;40.75;;;;;;;0.18;100.00;98467.50;2088679;28;20296;-85
2020/12/06 04:02:59;;;;;;;69.40;39.27;;;;;;;0.17;100.00;98475.56;2088895;28;20218;-85
2020/12/06 04:04:00;;;;;;;63.17;38.15;;;;;;;0.16;100.00;98476.63;2080686;28;20598;-85
2020/12/06 04:05:01;;;;;;;72.93;40.90;;;;;;;-0.01;100.00;98450.44;2089057;28;20298;-85
2020/12/06 04:06:02;;;;;;;73.38;40.55;;;;;;;0.04;100.00;98458.38;2088863;28;20215;-85
2020/12/06 04:07:04;;;;;;;70.00;39.00;;;;;;;0.07;100.00;98468.38;2089518;28;20301;-86
2020/12/06 04:08:05;;;;;;;70.80;41.33;;;;;;;0.04;100.00;98468.06;2088813;28;20272;-86
2020/12/06 04:09:06;;;;;;;69.57;39.13;;;;;;;0.06;100.00;98468.63;2080514;28;20266;-86
2020/12/06 04:10:07;;;;;;;72.80;38.97;;;;;;;0.03;100.00;98476.97;2078031;28;20238;-84
2020/12/06 04:11:08;;;;;;;67.03;40.20;;;;;;;-0.10;100.00;98460.53;2076902;28;20231;-85
2020/12/06 04:12:09;;;;;;;74.95;42.25;;;;;;;-0.03;100.00;98476.09;2080507;28;20227;-85
2020/12/06 04:13:10;;;;;;;68.73;40.40;;;;;;;-0.12;100.00;98460.00;2080557;28;20251;-85
2020/12/06 04:14:11;;;;;;;77.90;40.97;;;;;;;-0.04;100.00;98472.69;2080614;28;20220;-85
2020/12/06 04:15:12;;;;;;;69.33;40.90;;;;;;;-0.06;100.00;98468.72;2080527;28;20235;-85
2020/12/06 04:16:13;;;;;;;73.82;41.10;;;;;;;-0.12;100.00;98465.22;2089309;28;20712;-85
2020/12/06 04:17:14;;;;;;;69.30;38.83;;;;;;;-0.14;100.00;98469.94;2089035;28;20680;-86
2020/12/06 04:18:15;;;;;;;70.43;39.92;;;;;;;-0.07;100.00;98473.19;2089578;28;20306;-86
2020/12/06 04:19:17;;;;;;;75.33;41.77;;;;;;;-0.07;100.00;98475.81;2089472;28;20225;-85
2020/12/06 04:20:17;;;;;;;74.38;41.22;;;;;;;-0.09;100.00;98472.63;2089165;28;20734;-85
2020/12/06 04:21:19;;;;;;;73.70;39.63;;;;;;;-0.08;100.00;98476.06;2081386;28;20649;-85
2020/12/06 04:22:20;;;;;;;62.83;37.30;;;;;;;-0.09;100.00;98475.25;2088966;28;20231;-86
2020/12/06 04:23:22;;;;;;;72.88;38.05;;;;;;;0.05;100.00;98486.19;2089647;28;20227;-86
2020/12/06 04:24:22;;;;;;;70.53;37.35;;;;;;;0.20;100.00;98485.59;2089407;28;20310;-83
2020/12/06 04:25:24;;;;;;;80.20;41.87;;;;;;;0.24;100.00;98481.44;2088567;28;20233;-83
2020/12/06 04:26:25;;;;;;;69.05;38.08;;;;;;;0.32;100.00;98486.28;2081111;28;20223;-84
2020/12/06 04:27:26;;;;;;;74.13;39.25;;;;;;;0.34;100.00;98484.19;2088365;28;20798;-84
2020/12/06 04:28:27;;;;;;;78.30;39.45;;;;;;;0.41;100.00;98484.00;2089031;28;20230;-85
2020/12/06 04:29:29;;;;;;;75.95;38.22;;;;;;;0.46;100.00;98487.50;2089148;28;20254;-85
2020/12/06 04:30:30;;;;;;;78.28;40.53;;;;;;;0.50;100.00;98462.34;2089653;28;20258;-86
2020/12/06 04:31:31;;;;;;;70.18;36.20;;;;;;;0.73;100.00;98473.63;2088170;28;20225;-86
2020/12/06 04:32:32;;;;;;;80.63;38.60;;;;;;;0.87;100.00;98481.91;2079938;28;20234;-85
2020/12/06 04:33:33;;;;;;;93.30;46.00;;;;;;;0.91;100.00;98489.06;2089269;28;20214;-86
2020/12/06 04:34:36;;;;;;;87.82;44.25;;;;;;;0.93;100.00;98488.81;2088702;28;20226;-86
2020/12/06 04:35:37;;;;;;;79.38;41.30;;;;;;;0.87;100.00;98485.34;2080309;28;20681;-82
2020/12/06 04:36:39;;;;;;;81.30;42.35;;;;;;;0.75;100.00;98476.78;2080533;28;20616;-85
2020/12/06 04:37:40;;;;;;;77.88;42.65;;;;;;;0.70;100.00;98482.00;2079853;28;20239;-86
2020/12/06 04:38:42;;;;;;;68.18;41.42;;;;;;;0.62;100.00;98475.38;2080489;28;20228;-85
2020/12/06 04:39:43;;;;;;;72.53;40.00;;;;;;;0.55;100.00;98472.91;2080548;28;20306;-84
2020/12/06 04:40:44;;;;;;;59.23;37.23;;;;;;;0.51;100.00;98474.44;2081256;28;20234;-85
2020/12/06 04:41:45;;;;;;;63.95;38.50;;;;;;;0.45;100.00;98470.19;2081232;28;20250;-85